createdAt,value
2023-04-16T00:00:08.140Z,100106.34
2023-04-16T00:02:39.917Z,100111.97
2023-04-16T00:05:09.700Z,100114.28
2023-04-16T00:07:38.347Z,100106.31
2023-04-16T00:10:08.538Z,100110.78
2023-04-16T00:12:37.728Z,100107.69
2023-04-16T00:15:09.031Z,100107.22
2023-04-16T00:17:38.006Z,100109.09
2023-04-16T00:20:09.065Z,100105.88
2023-04-16T00:22:40.727Z,100101.94
2023-04-16T00:25:10.270Z,100097.88
2023-04-16T00:27:39.360Z,100095.41
2023-04-16T00:30:11.262Z,100097.25
2023-04-16T00:32:40.184Z,100097.50
2023-04-16T00:35:09.840Z,100105.31
2023-04-16T00:37:38.406Z,100108.09
2023-04-16T00:40:08.685Z,100110.63
2023-04-16T00:42:38.287Z,100107.13
2023-04-16T00:45:08.181Z,100100.31
2023-04-16T00:47:38.744Z,100110.69
2023-04-16T00:50:09.173Z,100106.00
2023-04-16T00:52:37.766Z,100104.78
2023-04-16T00:55:08.206Z,100111.84
2023-04-16T00:57:36.897Z,100109.25
2023-04-16T01:00:06.638Z,100105.34
2023-04-16T01:02:36.182Z,100119.13
2023-04-16T01:05:07.621Z,100119.81
2023-04-16T01:07:36.245Z,100117.84
2023-04-16T01:10:05.676Z,100121.31
2023-04-16T01:12:34.472Z,100119.50
2023-04-16T01:15:03.622Z,100113.13
2023-04-16T01:17:32.625Z,100115.25
2023-04-16T01:20:01.965Z,100116.91
2023-04-16T01:22:32.003Z,100119.72
2023-04-16T01:25:01.030Z,100119.34
2023-04-16T01:27:29.982Z,100112.00
2023-04-16T01:29:59.015Z,100115.63
2023-04-16T01:32:40.326Z,100119.94
2023-04-16T01:35:09.422Z,100120.63
2023-04-16T01:37:39.382Z,100118.66
2023-04-16T01:40:08.609Z,100118.59
2023-04-16T01:42:37.535Z,100119.34
2023-04-16T01:45:08.256Z,100122.44
2023-04-16T01:47:37.383Z,100117.84
2023-04-16T01:50:07.318Z,100118.16
2023-04-16T01:52:37.146Z,100121.31
2023-04-16T01:55:08.337Z,100125.31
2023-04-16T01:57:37.508Z,100126.97
2023-04-16T02:00:07.527Z,100129.63
2023-04-16T02:02:49.402Z,100126.38
2023-04-16T02:05:26.934Z,100132.50
2023-04-16T02:07:55.797Z,100132.66
2023-04-16T02:10:26.216Z,100133.63
2023-04-16T02:12:55.298Z,100141.91
2023-04-16T02:15:25.478Z,100141.13
2023-04-16T02:17:57.016Z,100139.25
2023-04-16T02:20:27.637Z,100144.34
2023-04-16T02:23:00.557Z,100142.75
2023-04-16T02:25:31.092Z,100141.81
2023-04-16T02:28:00.554Z,100145.75
2023-04-16T02:30:41.007Z,100150.75
2023-04-16T02:33:11.715Z,100152.78
2023-04-16T02:35:43.497Z,100160.22
2023-04-16T02:38:12.474Z,100157.91
2023-04-16T02:40:43.942Z,100158.41
2023-04-16T02:43:13.284Z,100166.88
2023-04-16T02:45:42.264Z,100169.50
2023-04-16T02:48:11.267Z,100167.03
2023-04-16T02:50:40.156Z,100170.53
2023-04-16T02:53:10.653Z,100179.75
2023-04-16T02:55:39.237Z,100180.63
2023-04-16T02:58:09.613Z,100179.50
2023-04-16T03:00:39.717Z,100188.75
2023-04-16T03:03:08.834Z,100184.09
2023-04-16T03:05:39.749Z,100184.06
2023-04-16T03:08:09.630Z,100185.31
2023-04-16T03:10:38.408Z,100187.81
2023-04-16T03:13:07.242Z,100191.91
2023-04-16T03:15:37.574Z,100193.66
2023-04-16T03:18:06.286Z,100199.19
2023-04-16T03:20:35.147Z,100182.94
2023-04-16T03:23:04.110Z,100196.63
2023-04-16T03:25:32.978Z,100190.19
2023-04-16T03:28:03.659Z,100196.03
2023-04-16T03:30:32.970Z,100198.50
2023-04-16T03:33:03.439Z,100192.16
2023-04-16T03:35:32.457Z,100194.06
2023-04-16T03:38:01.587Z,100192.41
2023-04-16T03:40:30.440Z,100193.16
2023-04-16T03:43:00.638Z,100195.34
2023-04-16T03:45:30.569Z,100195.56
2023-04-16T03:48:00.323Z,100197.84
2023-04-16T03:50:30.678Z,100205.09
2023-04-16T03:52:59.694Z,100199.28
2023-04-16T03:55:28.282Z,100201.72
2023-04-16T03:57:57.556Z,100207.66
2023-04-16T04:00:26.894Z,100205.03
2023-04-16T04:03:03.751Z,100204.50
2023-04-16T04:05:37.976Z,100214.88
2023-04-16T04:08:07.543Z,100209.72
2023-04-16T04:10:36.776Z,100212.00
2023-04-16T04:13:08.167Z,100209.31
2023-04-16T04:15:40.449Z,100212.03
2023-04-16T04:18:09.372Z,100218.59
2023-04-16T04:20:42.174Z,100212.75
2023-04-16T04:23:11.175Z,100209.44
2023-04-16T04:25:39.666Z,100217.16
2023-04-16T04:28:08.617Z,100214.41
2023-04-16T04:30:37.538Z,100224.03
2023-04-16T04:33:07.710Z,100216.16
2023-04-16T04:35:36.945Z,100223.72
2023-04-16T04:38:07.686Z,100227.50
2023-04-16T04:40:36.537Z,100225.81
2023-04-16T04:43:06.168Z,100226.56
2023-04-16T04:45:35.494Z,100233.84
2023-04-16T04:48:05.400Z,100229.47
2023-04-16T04:50:34.402Z,100237.25
2023-04-16T04:53:10.068Z,100238.31
2023-04-16T04:55:41.288Z,100241.06
2023-04-16T04:58:11.079Z,100241.75
2023-04-16T05:00:41.120Z,100239.00
2023-04-16T05:03:12.554Z,100244.72
2023-04-16T05:05:41.980Z,100251.00
2023-04-16T05:08:10.866Z,100247.09
2023-04-16T05:10:41.099Z,100244.22
2023-04-16T05:13:10.014Z,100253.22
2023-04-16T05:15:39.463Z,100247.91
2023-04-16T05:18:08.683Z,100251.59
2023-04-16T05:20:38.186Z,100256.06
2023-04-16T05:23:07.144Z,100258.13
2023-04-16T05:25:35.806Z,100254.13
2023-04-16T05:28:06.477Z,100259.50
2023-04-16T05:30:35.615Z,100258.03
2023-04-16T05:33:04.545Z,100258.44
2023-04-16T05:35:33.420Z,100261.31
2023-04-16T05:38:02.335Z,100261.75
2023-04-16T05:40:30.793Z,100268.34
2023-04-16T05:42:59.666Z,100268.53
2023-04-16T05:45:31.397Z,100269.09
2023-04-16T05:48:00.465Z,100264.09
2023-04-16T05:50:29.611Z,100268.59
2023-04-16T05:52:58.631Z,100278.25
2023-04-16T05:55:27.108Z,100278.09
2023-04-16T05:57:56.236Z,100278.59
2023-04-16T06:00:25.491Z,100282.53
2023-04-16T06:02:55.933Z,100284.72
2023-04-16T06:05:25.596Z,100289.13
2023-04-16T06:07:54.441Z,100284.84
2023-04-16T06:10:23.494Z,100284.03
2023-04-16T06:12:52.434Z,100287.56
2023-04-16T06:15:21.364Z,100292.56
2023-04-16T06:17:50.793Z,100295.66
2023-04-16T06:20:21.100Z,100295.78
2023-04-16T06:22:49.696Z,100301.88
2023-04-16T06:25:18.686Z,100305.88
2023-04-16T06:27:47.625Z,100306.09
2023-04-16T06:30:17.265Z,100311.78
2023-04-16T06:32:46.702Z,100306.16
2023-04-16T06:35:15.632Z,100306.53
2023-04-16T06:37:45.621Z,100307.38
2023-04-16T06:40:14.432Z,100311.53
2023-04-16T06:42:45.511Z,100304.91
2023-04-16T06:45:15.233Z,100304.72
2023-04-16T06:47:44.192Z,100304.88
2023-04-16T06:50:13.180Z,100302.25
2023-04-16T06:52:41.992Z,100303.72
2023-04-16T06:55:12.859Z,100309.53
2023-04-16T06:57:41.936Z,100308.00
2023-04-16T07:00:11.968Z,100312.50
2023-04-16T07:02:41.342Z,100310.72
2023-04-16T07:05:10.651Z,100312.38
2023-04-16T07:07:39.402Z,100312.84
2023-04-16T07:10:09.463Z,100321.81
2023-04-16T07:12:39.842Z,100316.84
2023-04-16T07:15:09.236Z,100325.50
2023-04-16T07:17:38.338Z,100333.81
2023-04-16T07:20:08.983Z,100330.63
2023-04-16T07:22:37.953Z,100327.50
2023-04-16T07:25:07.438Z,100339.28
2023-04-16T07:27:36.455Z,100344.44
2023-04-16T07:30:08.420Z,100341.91
2023-04-16T07:32:37.419Z,100337.97
2023-04-16T07:35:06.944Z,100351.09
2023-04-16T07:37:35.458Z,100348.63
2023-04-16T07:40:05.478Z,100350.09
2023-04-16T07:42:34.471Z,100349.28
2023-04-16T07:45:03.437Z,100350.94
2023-04-16T07:47:33.993Z,100354.28
2023-04-16T07:50:03.032Z,100358.63
2023-04-16T07:52:31.826Z,100363.28
2023-04-16T07:55:00.848Z,100363.06
2023-04-16T07:57:29.672Z,100370.06
2023-04-16T07:59:58.705Z,100379.00
2023-04-16T08:02:27.851Z,100375.28
2023-04-16T08:04:58.034Z,100386.47
2023-04-16T08:07:27.116Z,100382.25
2023-04-16T08:09:56.276Z,100384.66
2023-04-16T08:12:25.294Z,100389.97
2023-04-16T08:14:54.553Z,100396.16
2023-04-16T08:17:23.553Z,100399.84
2023-04-16T08:19:52.472Z,100398.06
2023-04-16T08:22:23.018Z,100397.50
2023-04-16T08:24:51.989Z,100388.44
2023-04-16T08:27:21.336Z,100396.38
2023-04-16T08:29:50.469Z,100392.25
2023-04-16T08:32:19.459Z,100395.81
2023-04-16T08:34:48.173Z,100387.09
2023-04-16T08:37:17.215Z,100391.94
2023-04-16T08:39:47.716Z,100388.22
2023-04-16T08:42:23.951Z,100392.06
2023-04-16T08:44:54.827Z,100391.50
2023-04-16T08:47:24.850Z,100393.84
2023-04-16T08:49:55.571Z,100396.97
2023-04-16T08:52:27.653Z,100393.63
2023-04-16T08:55:04.590Z,100400.06
2023-04-16T08:57:40.347Z,100406.69
2023-04-16T09:00:11.003Z,100408.34
2023-04-16T09:02:40.826Z,100408.28
2023-04-16T09:05:11.786Z,100406.50
2023-04-16T09:07:41.128Z,100407.13
2023-04-16T09:10:14.795Z,100409.56
2023-04-16T09:12:44.534Z,100399.31
2023-04-16T09:15:15.101Z,100408.13
2023-04-16T09:17:44.299Z,100409.91
2023-04-16T09:20:14.786Z,100410.47
2023-04-16T09:22:43.514Z,100416.44
2023-04-16T09:25:14.372Z,100419.38
2023-04-16T09:27:43.381Z,100417.31
2023-04-16T09:30:27.593Z,100416.97
2023-04-16T09:33:16.809Z,100431.00
2023-04-16T09:35:50.033Z,100426.25
2023-04-16T09:38:19.539Z,100425.13
2023-04-16T09:40:49.810Z,100426.50
2023-04-16T09:43:19.794Z,100433.72
2023-04-16T09:45:52.208Z,100433.16
2023-04-16T09:48:31.106Z,100434.47
2023-04-16T09:51:00.695Z,100435.63
2023-04-16T09:53:31.211Z,100444.94
2023-04-16T09:56:02.872Z,100438.91
2023-04-16T09:58:31.705Z,100445.94
2023-04-16T10:01:03.021Z,100449.50
2023-04-16T10:03:32.956Z,100445.25
2023-04-16T10:06:03.485Z,100445.66
2023-04-16T10:08:32.506Z,100450.50
2023-04-16T10:11:03.841Z,100450.19
2023-04-16T10:13:33.281Z,100450.53
2023-04-16T10:16:02.344Z,100452.53
2023-04-16T10:18:32.704Z,100456.03
2023-04-16T10:21:04.451Z,100450.81
2023-04-16T10:23:34.324Z,100454.38
2023-04-16T10:26:04.836Z,100466.94
2023-04-16T10:28:35.530Z,100466.66
2023-04-16T10:31:07.651Z,100468.16
2023-04-16T10:33:37.725Z,100465.13
2023-04-16T10:36:10.706Z,100467.53
2023-04-16T10:38:40.955Z,100465.19
2023-04-16T10:41:11.580Z,100469.72
2023-04-16T10:43:44.402Z,100473.94
2023-04-16T10:46:20.562Z,100471.78
2023-04-16T10:48:50.932Z,100462.38
2023-04-16T10:51:26.414Z,100461.38
2023-04-16T10:53:56.546Z,100462.19
2023-04-16T10:56:28.087Z,100468.81
2023-04-16T10:58:57.589Z,100469.59
2023-04-16T11:01:34.097Z,100475.34
2023-04-16T11:04:04.331Z,100469.44
2023-04-16T11:06:33.227Z,100474.09
2023-04-16T11:09:05.804Z,100473.81
2023-04-16T11:11:39.851Z,100472.38
2023-04-16T11:14:10.123Z,100478.91
2023-04-16T11:16:42.429Z,100475.75
2023-04-16T11:19:17.958Z,100483.94
2023-04-16T11:21:46.968Z,100484.16
2023-04-16T11:24:16.332Z,100487.94
2023-04-16T11:26:46.687Z,100484.38
2023-04-16T11:29:16.323Z,100483.50
2023-04-16T11:31:46.777Z,100491.69
2023-04-16T11:34:16.055Z,100483.44
2023-04-16T11:36:45.271Z,100487.84
2023-04-16T11:39:14.214Z,100483.88
2023-04-16T11:41:48.420Z,100491.72
2023-04-16T11:44:21.520Z,100480.81
2023-04-16T11:46:50.254Z,100482.16
2023-04-16T11:49:19.530Z,100481.50
2023-04-16T11:51:49.115Z,100479.66
2023-04-16T11:54:21.634Z,100485.16
2023-04-16T11:56:54.082Z,100477.34
2023-04-16T11:59:24.731Z,100477.53
2023-04-16T12:01:56.609Z,100480.84
2023-04-16T12:04:27.539Z,100474.78
2023-04-16T12:07:10.233Z,100472.44
2023-04-16T12:09:40.763Z,100475.66
2023-04-16T12:12:31.106Z,100469.69
2023-04-16T12:15:03.718Z,100454.63
2023-04-16T12:17:34.026Z,100459.81
2023-04-16T12:20:06.232Z,100460.31
2023-04-16T12:22:37.402Z,100460.63
2023-04-16T12:25:08.248Z,100459.03
2023-04-16T12:27:51.469Z,100451.78
2023-04-16T12:30:23.897Z,100454.97
2023-04-16T12:32:55.561Z,100459.59
2023-04-16T12:35:32.790Z,100467.78
2023-04-16T12:38:01.684Z,100460.44
2023-04-16T12:40:30.662Z,100461.44
2023-04-16T12:43:02.611Z,100453.19
2023-04-16T12:45:31.684Z,100446.09
2023-04-16T12:48:00.853Z,100443.81
2023-04-16T12:50:29.958Z,100442.38
2023-04-16T12:52:59.625Z,100438.13
2023-04-16T12:55:28.395Z,100432.91
2023-04-16T12:57:57.370Z,100436.06
2023-04-16T13:00:27.881Z,100431.78
2023-04-16T13:02:56.873Z,100435.28
2023-04-16T13:05:28.214Z,100443.44
2023-04-16T13:07:56.944Z,100436.06
2023-04-16T13:10:27.867Z,100444.47
2023-04-16T13:12:57.112Z,100442.31
2023-04-16T13:15:27.506Z,100443.72
2023-04-16T13:17:56.540Z,100451.19
2023-04-16T13:20:26.063Z,100450.50
2023-04-16T13:22:55.402Z,100447.44
2023-04-16T13:25:24.248Z,100438.16
2023-04-16T13:27:53.215Z,100451.53
2023-04-16T13:30:22.187Z,100443.44
2023-04-16T13:32:52.560Z,100449.56
2023-04-16T13:35:21.698Z,100449.44
2023-04-16T13:37:50.545Z,100445.72
2023-04-16T13:40:19.545Z,100448.25
2023-04-16T13:42:48.571Z,100450.16
2023-04-16T13:45:17.538Z,100445.00
2023-04-16T13:47:47.015Z,100447.78
2023-04-16T13:50:17.302Z,100441.91
2023-04-16T13:52:45.980Z,100450.38
2023-04-16T13:55:18.009Z,100444.75
2023-04-16T13:57:47.821Z,100453.31
2023-04-16T14:00:18.259Z,100453.91
2023-04-16T14:02:48.943Z,100461.31
2023-04-16T14:05:20.749Z,100452.63
2023-04-16T14:07:49.395Z,100452.63
2023-04-16T14:10:18.692Z,100453.94
2023-04-16T14:12:47.693Z,100453.69
2023-04-16T14:15:16.594Z,100447.75
2023-04-16T14:17:45.619Z,100449.00
2023-04-16T14:20:15.795Z,100442.19
2023-04-16T14:22:46.834Z,100451.44
2023-04-16T14:25:15.813Z,100447.63
2023-04-16T14:27:44.814Z,100439.38
2023-04-16T14:30:14.306Z,100440.34
2023-04-16T14:32:43.268Z,100442.94
2023-04-16T14:35:12.273Z,100448.31
2023-04-16T14:37:41.508Z,100443.22
2023-04-16T14:40:12.813Z,100444.81
2023-04-16T14:42:41.806Z,100449.47
2023-04-16T14:45:11.360Z,100440.94
2023-04-16T14:47:46.154Z,100438.28
2023-04-16T14:50:15.855Z,100441.81
2023-04-16T14:52:44.392Z,100440.31
2023-04-16T14:55:14.818Z,100446.28
2023-04-16T14:57:43.827Z,100443.19
2023-04-16T15:00:17.271Z,100446.88
2023-04-16T15:02:47.298Z,100453.59
2023-04-16T15:05:16.588Z,100459.00
2023-04-16T15:07:45.119Z,100460.09
2023-04-16T15:10:15.738Z,100462.53
2023-04-16T15:12:45.012Z,100464.72
2023-04-16T15:15:13.886Z,100462.50
2023-04-16T15:17:44.692Z,100458.28
2023-04-16T15:20:14.461Z,100471.31
2023-04-16T15:22:43.071Z,100470.56
2023-04-16T15:25:12.070Z,100475.03
2023-04-16T15:27:42.618Z,100477.69
2023-04-16T15:30:12.738Z,100481.34
2023-04-16T15:32:41.695Z,100483.31
2023-04-16T15:35:11.433Z,100481.50
2023-04-16T15:37:40.237Z,100474.41
2023-04-16T15:40:09.767Z,100478.88
2023-04-16T15:42:38.769Z,100479.84
2023-04-16T15:45:09.677Z,100472.38
2023-04-16T15:47:41.462Z,100472.91
2023-04-16T15:50:11.104Z,100469.47
2023-04-16T15:52:40.379Z,100478.97
2023-04-16T15:55:10.084Z,100472.22
2023-04-16T15:57:39.136Z,100471.13
2023-04-16T16:00:14.217Z,100474.81
2023-04-16T16:02:43.643Z,100477.47
2023-04-16T16:05:13.764Z,100477.59
2023-04-16T16:07:42.495Z,100478.50
2023-04-16T16:10:13.278Z,100483.13
2023-04-16T16:12:43.197Z,100489.41
2023-04-16T16:15:13.873Z,100486.78
2023-04-16T16:17:42.993Z,100493.91
2023-04-16T16:20:12.969Z,100502.91
2023-04-16T16:22:43.158Z,100499.72
2023-04-16T16:25:12.080Z,100496.00
2023-04-16T16:27:42.165Z,100505.53
2023-04-16T16:30:11.350Z,100512.22
2023-04-16T16:32:43.876Z,100501.50
2023-04-16T16:35:13.147Z,100514.38
2023-04-16T16:37:42.499Z,100516.28
2023-04-16T16:40:12.237Z,100517.06
2023-04-16T16:42:41.219Z,100527.38
2023-04-16T16:45:11.610Z,100536.69
2023-04-16T16:47:42.027Z,100534.69
2023-04-16T16:50:12.673Z,100538.69
2023-04-16T16:52:41.375Z,100542.19
2023-04-16T16:55:11.327Z,100544.00
2023-04-16T16:57:40.437Z,100551.59
2023-04-16T17:00:14.358Z,100551.44
2023-04-16T17:02:44.976Z,100561.13
2023-04-16T17:05:14.214Z,100552.78
2023-04-16T17:07:42.702Z,100559.56
2023-04-16T17:10:13.457Z,100562.22
2023-04-16T17:12:42.768Z,100564.75
2023-04-16T17:15:12.543Z,100570.81
2023-04-16T17:17:41.895Z,100565.09
2023-04-16T17:20:14.434Z,100574.47
2023-04-16T17:22:43.818Z,100580.34
2023-04-16T17:25:13.014Z,100577.53
2023-04-16T17:27:42.278Z,100587.84
2023-04-16T17:30:11.612Z,100590.19
2023-04-16T17:32:40.753Z,100596.19
2023-04-16T17:35:13.878Z,100593.69
2023-04-16T17:37:42.640Z,100590.31
2023-04-16T17:40:13.337Z,100596.88
2023-04-16T17:42:42.776Z,100595.53
2023-04-16T17:45:12.815Z,100602.19
2023-04-16T17:47:44.447Z,100598.69
2023-04-16T17:50:15.171Z,100597.03
2023-04-16T17:52:43.697Z,100601.06
2023-04-16T17:55:12.853Z,100601.81
2023-04-16T17:57:42.264Z,100602.06
2023-04-16T18:00:12.641Z,100608.19
2023-04-16T18:02:42.376Z,100605.78
2023-04-16T18:05:11.745Z,100616.91
2023-04-16T18:07:41.739Z,100614.03
2023-04-16T18:10:11.569Z,100616.44
2023-04-16T18:12:40.618Z,100634.03
2023-04-16T18:15:11.211Z,100622.25
2023-04-16T18:17:40.599Z,100632.44
2023-04-16T18:20:11.909Z,100631.13
2023-04-16T18:22:41.843Z,100633.06
2023-04-16T18:25:10.901Z,100632.41
2023-04-16T18:27:39.857Z,100632.72
2023-04-16T18:30:18.977Z,100635.47
2023-04-16T18:33:16.587Z,100641.25
2023-04-16T18:35:41.704Z,100645.00
2023-04-16T18:38:13.647Z,100639.47
2023-04-16T18:40:42.427Z,100640.53
2023-04-16T18:43:11.398Z,100640.44
2023-04-16T18:45:40.400Z,100637.88
2023-04-16T18:48:09.379Z,100644.63
2023-04-16T18:50:38.213Z,100654.25
2023-04-16T18:53:07.144Z,100639.53
2023-04-16T18:55:37.032Z,100640.38
2023-04-16T18:58:06.099Z,100642.09
2023-04-16T19:00:35.125Z,100643.03
2023-04-16T19:03:07.144Z,100642.81
2023-04-16T19:05:36.357Z,100640.50
2023-04-16T19:08:05.425Z,100644.78
2023-04-16T19:10:34.029Z,100647.16
2023-04-16T19:13:04.414Z,100648.13
2023-04-16T19:15:34.830Z,100644.22
2023-04-16T19:18:03.784Z,100651.19
2023-04-16T19:20:35.661Z,100651.38
2023-04-16T19:23:05.801Z,100649.13
2023-04-16T19:25:34.842Z,100646.09
2023-04-16T19:28:05.443Z,100649.50
2023-04-16T19:30:34.386Z,100648.72
2023-04-16T19:33:03.380Z,100653.84
2023-04-16T19:35:32.454Z,100656.84
2023-04-16T19:38:01.367Z,100654.47
2023-04-16T19:40:29.949Z,100654.59
2023-04-16T19:42:58.992Z,100649.00
2023-04-16T19:45:29.684Z,100648.00
2023-04-16T19:47:59.121Z,100642.75
2023-04-16T19:50:28.106Z,100639.09
2023-04-16T19:52:56.723Z,100641.75
2023-04-16T19:55:25.861Z,100649.44
2023-04-16T19:57:54.780Z,100651.25
2023-04-16T20:00:23.799Z,100644.97
2023-04-16T20:02:54.285Z,100645.53
2023-04-16T20:05:23.487Z,100651.53
2023-04-16T20:07:52.792Z,100648.31
2023-04-16T20:10:21.946Z,100641.06
2023-04-16T20:12:51.484Z,100651.66
2023-04-16T20:15:20.544Z,100647.34
2023-04-16T20:17:49.591Z,100641.50
2023-04-16T20:20:20.170Z,100647.06
2023-04-16T20:22:49.956Z,100639.13
2023-04-16T20:25:20.511Z,100649.31
2023-04-16T20:27:49.772Z,100649.16
2023-04-16T20:30:18.917Z,100647.78
2023-04-16T20:32:48.244Z,100658.50
2023-04-16T20:35:17.155Z,100651.38
2023-04-16T20:37:47.148Z,100650.13
2023-04-16T20:40:16.561Z,100654.06
2023-04-16T20:42:47.287Z,100651.66
2023-04-16T20:45:16.754Z,100655.00
2023-04-16T20:47:45.729Z,100655.44
2023-04-16T20:50:14.916Z,100656.13
2023-04-16T20:52:43.935Z,100655.00
2023-04-16T20:55:14.329Z,100652.50
2023-04-16T20:57:43.289Z,100658.91
2023-04-16T21:00:12.995Z,100648.31
2023-04-16T21:02:42.114Z,100647.63
2023-04-16T21:05:14.277Z,100652.50
2023-04-16T21:07:43.231Z,100656.25
2023-04-16T21:10:20.288Z,100646.91
2023-04-16T21:12:49.374Z,100648.44
2023-04-16T21:15:18.467Z,100643.44
2023-04-16T21:17:48.387Z,100647.47
2023-04-16T21:20:17.423Z,100649.84
2023-04-16T21:22:46.013Z,100648.16
2023-04-16T21:25:16.578Z,100649.94
2023-04-16T21:27:45.675Z,100644.53
2023-04-16T21:30:15.677Z,100645.41
2023-04-16T21:32:45.688Z,100651.09
2023-04-16T21:35:14.804Z,100646.09
2023-04-16T21:37:43.390Z,100643.16
2023-04-16T21:40:13.205Z,100646.66
2023-04-16T21:42:44.486Z,100649.16
2023-04-16T21:45:15.604Z,100646.09
2023-04-16T21:47:44.605Z,100652.22
2023-04-16T21:50:14.223Z,100650.16
2023-04-16T21:52:46.276Z,100648.31
2023-04-16T21:55:15.497Z,100650.56
2023-04-16T21:57:45.813Z,100650.84
2023-04-16T22:00:15.374Z,100653.06
2023-04-16T22:02:44.279Z,100651.66
2023-04-16T22:05:13.314Z,100651.38
2023-04-16T22:07:41.772Z,100652.63
2023-04-16T22:10:12.963Z,100649.72
2023-04-16T22:12:45.106Z,100653.88
2023-04-16T22:15:15.926Z,100655.16
2023-04-16T22:17:45.667Z,100649.72
2023-04-16T22:20:14.741Z,100654.84
2023-04-16T22:22:43.908Z,100651.66
2023-04-16T22:25:13.236Z,100659.28
2023-04-16T22:27:42.183Z,100653.72
2023-04-16T22:30:11.905Z,100658.59
2023-04-16T22:32:42.322Z,100657.78
2023-04-16T22:35:12.609Z,100657.34
2023-04-16T22:37:41.074Z,100661.50
2023-04-16T22:40:11.566Z,100662.34
2023-04-16T22:42:40.504Z,100657.13
2023-04-16T22:45:10.037Z,100663.53
2023-04-16T22:47:38.994Z,100663.41
2023-04-16T22:50:11.195Z,100659.09
2023-04-16T22:52:39.621Z,100659.91
2023-04-16T22:55:09.341Z,100657.16
2023-04-16T22:57:38.225Z,100655.22
2023-04-16T23:00:16.034Z,100656.47
2023-04-16T23:02:45.574Z,100650.47
2023-04-16T23:05:16.066Z,100654.78
2023-04-16T23:07:44.593Z,100650.75
2023-04-16T23:10:16.291Z,100647.97
2023-04-16T23:12:45.149Z,100651.88
2023-04-16T23:15:14.547Z,100655.50
2023-04-16T23:17:43.556Z,100657.34
2023-04-16T23:20:13.506Z,100655.97
2023-04-16T23:22:43.642Z,100642.88
2023-04-16T23:25:12.617Z,100644.28
2023-04-16T23:27:41.752Z,100645.97
2023-04-16T23:30:11.307Z,100650.97
2023-04-16T23:32:40.243Z,100642.47
2023-04-16T23:35:10.313Z,100643.84
2023-04-16T23:37:39.390Z,100638.97
2023-04-16T23:40:11.533Z,100634.25
2023-04-16T23:42:40.553Z,100632.81
2023-04-16T23:45:10.779Z,100637.72
2023-04-16T23:47:40.204Z,100636.88
2023-04-16T23:50:09.509Z,100630.06
2023-04-16T23:52:38.010Z,100629.63
2023-04-16T23:55:07.566Z,100627.38
2023-04-16T23:57:37.890Z,100634.88
